• Join FlightAware (Why Join?)
  • Login
  • US Flag 
10:16AM EST


 

Airport Tracker/Info


-or-


 

Live Flight TrackerFlight Track Log ✈ N465TP ✈ 23-Aug-2013 ✈ KCOD - 11WY

Flight Track Log - Related Links

Times and Time Zones

All times are in EDT time to prevent confusion due to time zone crossing. See the N465TP flight status page for this flight to view local times or setup timezone preferences in your user account.

Time Position Orientation Groundspeed Altitude Reporting Facility
EDT Latitude Longitude Course Direction KTS MPH feet Rate Location/Type
06:36PM 44.5653 -108.7225 78° East 157 181 12,300  Level Salt Lake Center
06:37PM 44.5722 -108.6606 81° East 159 183 13,200 1,020 Climbing Salt Lake Center
06:38PM 44.5800 -108.5939 81° East 166 191 14,500 1,080 Climbing Salt Lake Center
06:39PM 44.6033 -108.5353 61° Northeast 170 196 15,500 960 Climbing Salt Lake Center
06:40PM 44.6269 -108.4761 61° Northeast 173 199 16,600 1,140 Climbing Salt Lake Center
06:41PM 44.5566 -108.5903 78° East  Level FlightAware Approximate
06:41PM 44.6556 -108.4003 62° Northeast 180 207 17,900  Level Salt Lake Center
06:42PM 44.6819 -108.3372 60° Northeast 187 215 19,000 960 Climbing Salt Lake Center
06:43PM 44.7061 -108.2747 61° Northeast 184 212 19,900 780 Climbing Salt Lake Center
06:44PM 44.7097 -108.2000 86° East 190 219 20,700 480 Climbing Salt Lake Center
06:45PM 44.7158 -108.1183 84° East 207 238 21,000 120 Climbing Salt Lake Center
06:46PM 44.7222 -108.0267 84° East 230 265 21,000  Level Salt Lake Center
06:47PM 44.7328 -107.9086 83° East 253 291 21,000  Level Salt Lake Center
06:48PM 44.7419 -107.8078 83° East 265 305 21,000 -60 Level Salt Lake Center
06:49PM 44.7508 -107.7067 83° East 264 304 20,900  Descending Salt Lake Center
06:50PM 44.7594 -107.6036 83° East 266 306 21,000  Climbing Salt Lake Center
06:51PM 44.7683 -107.4808 84° East 265 305 21,000  Level Salt Lake Center
06:52PM 44.7747 -107.3786 85° East 265 305 21,000  Level Salt Lake Center
06:53PM 44.7847 -107.2747 82° East 267 307 21,000  Level Salt Lake Center
06:54PM 44.7953 -107.1681 82° East 274 315 21,000  Level Salt Lake Center
06:55PM 44.8036 -107.0658 83° East 268 308 21,000  Level Salt Lake Center
06:56PM 44.8125 -106.9689 83° East 256 295 21,000  Level Salt Lake Center
06:57PM 44.8194 -106.8714 84° East 252 290 21,000  Level Salt Lake Center
06:58PM 44.8289 -106.7536 84° East 254 292 21,000  Level Salt Lake Center
06:59PM 44.8353 -106.6542 85° East 255 293 21,000  Level Salt Lake Center
07:00PM 44.8406 -106.5553 86° East 254 292 21,000  Level Salt Lake Center
07:01PM 44.8481 -106.4553 84° East 256 295 21,000  Level Salt Lake Center
07:02PM 44.8586 -106.3542 82° East 259 298 21,000 -300 Level Salt Lake Center
07:03PM 44.8656 -106.2558 84° East 257 296 20,400 -1,080 Descending Salt Lake Center
07:04PM 44.8731 -106.1433 85° East 245 282 18,800 -1,620 Descending Salt Lake Center
07:05PM 44.8794 -106.0503 84° East 241 277 17,200 -1,380 Descending Salt Lake Center
07:06PM 44.8836 -105.9575 86° East 240 276 16,000 -1,260 Descending Salt Lake Center
07:08PM 44.8881 -105.8667 86° East 237 273 14,700 -1,260 Descending Salt Lake Center
07:09PM 44.8942 -105.7769 84° East 233 268 13,400 -1,440 Descending Salt Lake Center
07:10PM 44.9006 -105.6922 84° East 227 261 11,800 -1,500 Descending Salt Lake Center
07:11PM 44.9067 -105.6047 84° East 225 259 10,400 -960 Descending Salt Lake Center
07:12PM 44.9128 -105.5033 85° East 221 254 9,900 -540 Descending Salt Lake Center
07:13PM 44.9175 -105.4203 85° East 217 250 9,400 -480 Descending Salt Lake Center
07:14PM 44.9225 -105.3361 85° East 216 249 9,000 -420 Descending Salt Lake Center